sensor_id;sensor_type;location;lat;lon;timestamp;P1;durP1;ratioP1;P2;durP2;ratioP2
29370;SDS011;16357;52.188;7.838;2023-05-07T00:01:17;12.25;;;10.20;;
29370;SDS011;16357;52.188;7.838;2023-05-07T00:03:45;14.55;;;10.60;;
29370;SDS011;16357;52.188;7.838;2023-05-07T00:06:12;15.90;;;11.35;;
29370;SDS011;16357;52.188;7.838;2023-05-07T00:08:39;16.05;;;10.80;;
29370;SDS011;16357;52.188;7.838;2023-05-07T00:11:05;14.82;;;11.45;;
29370;SDS011;16357;52.188;7.838;2023-05-07T00:13:32;15.23;;;11.07;;
29370;SDS011;16357;52.188;7.838;2023-05-07T00:16:02;15.75;;;11.35;;
29370;SDS011;16357;52.188;7.838;2023-05-07T00:18:29;14.48;;;11.40;;
29370;SDS011;16357;52.188;7.838;2023-05-07T00:20:55;17.55;;;12.15;;
29370;SDS011;16357;52.188;7.838;2023-05-07T00:23:22;15.93;;;11.90;;
29370;SDS011;16357;52.188;7.838;2023-05-07T00:25:49;14.82;;;11.88;;
29370;SDS011;16357;52.188;7.838;2023-05-07T00:28:15;14.32;;;11.80;;
29370;SDS011;16357;52.188;7.838;2023-05-07T00:30:42;16.13;;;12.35;;
29370;SDS011;16357;52.188;7.838;2023-05-07T00:33:08;15.38;;;12.30;;
29370;SDS011;16357;52.188;7.838;2023-05-07T00:35:35;15.90;;;12.40;;
29370;SDS011;16357;52.188;7.838;2023-05-07T00:38:01;15.80;;;11.82;;
29370;SDS011;16357;52.188;7.838;2023-05-07T00:40:28;15.18;;;12.00;;
29370;SDS011;16357;52.188;7.838;2023-05-07T00:42:54;16.65;;;12.13;;
29370;SDS011;16357;52.188;7.838;2023-05-07T00:45:27;18.90;;;12.25;;
29370;SDS011;16357;52.188;7.838;2023-05-07T00:47:55;15.80;;;12.65;;
29370;SDS011;16357;52.188;7.838;2023-05-07T00:50:25;15.95;;;13.60;;
29370;SDS011;16357;52.188;7.838;2023-05-07T00:52:52;17.17;;;12.88;;
29370;SDS011;16357;52.188;7.838;2023-05-07T00:55:19;17.52;;;12.45;;
29370;SDS011;16357;52.188;7.838;2023-05-07T00:57:46;21.33;;;13.48;;
29370;SDS011;16357;52.188;7.838;2023-05-07T01:00:12;17.33;;;13.52;;
29370;SDS011;16357;52.188;7.838;2023-05-07T01:02:40;15.80;;;12.82;;
29370;SDS011;16357;52.188;7.838;2023-05-07T01:05:07;19.42;;;13.70;;
29370;SDS011;16357;52.188;7.838;2023-05-07T01:07:38;17.42;;;13.40;;
29370;SDS011;16357;52.188;7.838;2023-05-07T01:10:06;19.20;;;13.80;;
29370;SDS011;16357;52.188;7.838;2023-05-07T01:12:35;18.77;;;13.43;;
29370;SDS011;16357;52.188;7.838;2023-05-07T01:15:03;16.70;;;13.20;;
29370;SDS011;16357;52.188;7.838;2023-05-07T01:17:35;18.80;;;12.98;;
29370;SDS011;16357;52.188;7.838;2023-05-07T01:20:03;16.13;;;12.13;;
29370;SDS011;16357;52.188;7.838;2023-05-07T01:22:31;17.05;;;13.50;;
29370;SDS011;16357;52.188;7.838;2023-05-07T01:24:59;18.80;;;13.45;;
29370;SDS011;16357;52.188;7.838;2023-05-07T01:27:27;19.77;;;13.95;;
29370;SDS011;16357;52.188;7.838;2023-05-07T01:29:54;18.55;;;15.07;;
29370;SDS011;16357;52.188;7.838;2023-05-07T01:32:23;16.77;;;13.82;;
29370;SDS011;16357;52.188;7.838;2023-05-07T01:34:55;18.63;;;13.77;;
29370;SDS011;16357;52.188;7.838;2023-05-07T01:37:23;19.20;;;14.35;;
29370;SDS011;16357;52.188;7.838;2023-05-07T01:39:52;17.95;;;14.07;;
29370;SDS011;16357;52.188;7.838;2023-05-07T01:42:19;17.35;;;13.32;;
29370;SDS011;16357;52.188;7.838;2023-05-07T01:44:45;19.90;;;14.20;;
29370;SDS011;16357;52.188;7.838;2023-05-07T01:47:12;17.10;;;13.85;;
29370;SDS011;16357;52.188;7.838;2023-05-07T01:49:40;17.45;;;13.57;;
29370;SDS011;16357;52.188;7.838;2023-05-07T01:52:09;20.20;;;14.25;;
29370;SDS011;16357;52.188;7.838;2023-05-07T01:54:36;17.25;;;13.20;;
29370;SDS011;16357;52.188;7.838;2023-05-07T01:57:03;17.15;;;13.40;;
29370;SDS011;16357;52.188;7.838;2023-05-07T01:59:29;22.23;;;15.43;;
29370;SDS011;16357;52.188;7.838;2023-05-07T02:01:56;19.70;;;14.35;;
29370;SDS011;16357;52.188;7.838;2023-05-07T02:04:22;21.23;;;14.10;;
29370;SDS011;16357;52.188;7.838;2023-05-07T02:06:49;18.65;;;14.38;;
29370;SDS011;16357;52.188;7.838;2023-05-07T02:09:16;18.58;;;14.27;;
29370;SDS011;16357;52.188;7.838;2023-05-07T02:11:44;19.77;;;14.45;;
29370;SDS011;16357;52.188;7.838;2023-05-07T02:14:10;20.67;;;15.45;;
29370;SDS011;16357;52.188;7.838;2023-05-07T02:16:37;22.30;;;15.48;;
29370;SDS011;16357;52.188;7.838;2023-05-07T02:19:03;20.10;;;15.30;;
29370;SDS011;16357;52.188;7.838;2023-05-07T02:21:29;19.83;;;14.70;;
29370;SDS011;16357;52.188;7.838;2023-05-07T02:23:56;18.92;;;14.48;;
29370;SDS011;16357;52.188;7.838;2023-05-07T02:26:22;23.05;;;15.93;;
29370;SDS011;16357;52.188;7.838;2023-05-07T02:28:49;20.98;;;15.48;;
29370;SDS011;16357;52.188;7.838;2023-05-07T02:31:15;21.05;;;14.90;;
29370;SDS011;16357;52.188;7.838;2023-05-07T02:33:42;22.23;;;15.23;;
29370;SDS011;16357;52.188;7.838;2023-05-07T02:36:09;18.02;;;14.68;;
29370;SDS011;16357;52.188;7.838;2023-05-07T02:38:36;20.40;;;15.05;;
29370;SDS011;16357;52.188;7.838;2023-05-07T02:41:02;20.95;;;15.32;;
29370;SDS011;16357;52.188;7.838;2023-05-07T02:43:29;18.40;;;14.55;;
29370;SDS011;16357;52.188;7.838;2023-05-07T02:48:29;22.70;;;15.77;;
29370;SDS011;16357;52.188;7.838;2023-05-07T02:50:55;18.88;;;14.60;;
29370;SDS011;16357;52.188;7.838;2023-05-07T02:53:22;23.88;;;15.88;;
29370;SDS011;16357;52.188;7.838;2023-05-07T02:55:48;19.52;;;15.50;;
29370;SDS011;16357;52.188;7.838;2023-05-07T02:58:15;19.92;;;14.98;;
29370;SDS011;16357;52.188;7.838;2023-05-07T03:00:41;22.50;;;15.75;;
29370;SDS011;16357;52.188;7.838;2023-05-07T03:03:08;22.33;;;15.52;;
29370;SDS011;16357;52.188;7.838;2023-05-07T03:05:34;19.48;;;15.68;;
29370;SDS011;16357;52.188;7.838;2023-05-07T03:08:01;19.63;;;15.52;;
29370;SDS011;16357;52.188;7.838;2023-05-07T03:10:27;22.08;;;15.80;;
29370;SDS011;16357;52.188;7.838;2023-05-07T03:12:54;20.20;;;14.85;;
29370;SDS011;16357;52.188;7.838;2023-05-07T03:15:20;21.00;;;16.52;;
29370;SDS011;16357;52.188;7.838;2023-05-07T03:17:47;18.25;;;15.23;;
29370;SDS011;16357;52.188;7.838;2023-05-07T03:20:14;21.92;;;15.70;;
29370;SDS011;16357;52.188;7.838;2023-05-07T03:22:41;21.35;;;15.95;;
29370;SDS011;16357;52.188;7.838;2023-05-07T03:25:08;19.90;;;15.27;;
29370;SDS011;16357;52.188;7.838;2023-05-07T03:27:35;20.58;;;15.60;;
29370;SDS011;16357;52.188;7.838;2023-05-07T03:30:02;22.38;;;15.82;;
29370;SDS011;16357;52.188;7.838;2023-05-07T03:32:28;20.77;;;16.27;;
29370;SDS011;16357;52.188;7.838;2023-05-07T03:34:55;22.75;;;16.00;;
29370;SDS011;16357;52.188;7.838;2023-05-07T03:37:21;21.25;;;15.93;;
29370;SDS011;16357;52.188;7.838;2023-05-07T03:39:48;25.42;;;17.50;;
29370;SDS011;16357;52.188;7.838;2023-05-07T03:42:14;25.70;;;18.23;;
29370;SDS011;16357;52.188;7.838;2023-05-07T03:44:41;20.10;;;16.30;;
29370;SDS011;16357;52.188;7.838;2023-05-07T03:47:07;22.27;;;15.75;;
29370;SDS011;16357;52.188;7.838;2023-05-07T03:49:34;23.33;;;16.70;;
29370;SDS011;16357;52.188;7.838;2023-05-07T03:52:00;22.42;;;16.48;;
29370;SDS011;16357;52.188;7.838;2023-05-07T03:54:27;25.55;;;17.60;;
29370;SDS011;16357;52.188;7.838;2023-05-07T03:56:53;23.40;;;16.77;;
29370;SDS011;16357;52.188;7.838;2023-05-07T03:59:20;22.50;;;16.38;;
29370;SDS011;16357;52.188;7.838;2023-05-07T04:01:46;22.70;;;16.63;;
29370;SDS011;16357;52.188;7.838;2023-05-07T04:04:13;21.42;;;15.63;;
29370;SDS011;16357;52.188;7.838;2023-05-07T04:06:40;19.58;;;15.57;;
29370;SDS011;16357;52.188;7.838;2023-05-07T04:09:07;20.92;;;16.30;;
29370;SDS011;16357;52.188;7.838;2023-05-07T04:11:34;22.05;;;16.05;;
29370;SDS011;16357;52.188;7.838;2023-05-07T04:14:02;21.80;;;16.55;;
29370;SDS011;16357;52.188;7.838;2023-05-07T04:16:28;21.23;;;15.65;;
29370;SDS011;16357;52.188;7.838;2023-05-07T04:18:54;20.50;;;16.13;;
29370;SDS011;16357;52.188;7.838;2023-05-07T04:21:21;21.02;;;16.30;;
29370;SDS011;16357;52.188;7.838;2023-05-07T04:23:47;19.63;;;15.32;;
29370;SDS011;16357;52.188;7.838;2023-05-07T04:26:14;22.55;;;16.42;;
29370;SDS011;16357;52.188;7.838;2023-05-07T04:28:42;20.02;;;15.48;;
29370;SDS011;16357;52.188;7.838;2023-05-07T04:31:08;21.42;;;15.85;;
29370;SDS011;16357;52.188;7.838;2023-05-07T04:33:35;19.88;;;15.55;;
29370;SDS011;16357;52.188;7.838;2023-05-07T04:36:01;23.30;;;16.67;;
29370;SDS011;16357;52.188;7.838;2023-05-07T04:38:30;21.52;;;16.73;;
29370;SDS011;16357;52.188;7.838;2023-05-07T04:40:58;21.05;;;15.55;;
29370;SDS011;16357;52.188;7.838;2023-05-07T04:43:28;23.05;;;16.20;;
29370;SDS011;16357;52.188;7.838;2023-05-07T04:45:55;21.90;;;15.40;;
29370;SDS011;16357;52.188;7.838;2023-05-07T04:48:22;23.05;;;15.82;;
29370;SDS011;16357;52.188;7.838;2023-05-07T04:50:49;21.58;;;16.52;;
29370;SDS011;16357;52.188;7.838;2023-05-07T04:53:16;20.48;;;16.02;;
29370;SDS011;16357;52.188;7.838;2023-05-07T04:55:43;20.85;;;15.00;;
29370;SDS011;16357;52.188;7.838;2023-05-07T04:58:11;20.80;;;16.23;;
29370;SDS011;16357;52.188;7.838;2023-05-07T05:00:38;21.75;;;15.68;;
29370;SDS011;16357;52.188;7.838;2023-05-07T05:03:08;19.75;;;15.63;;
29370;SDS011;16357;52.188;7.838;2023-05-07T05:05:34;22.02;;;15.43;;
29370;SDS011;16357;52.188;7.838;2023-05-07T05:08:01;20.88;;;15.93;;
29370;SDS011;16357;52.188;7.838;2023-05-07T05:10:27;21.67;;;15.75;;
29370;SDS011;16357;52.188;7.838;2023-05-07T05:12:54;21.90;;;15.60;;
29370;SDS011;16357;52.188;7.838;2023-05-07T05:15:21;19.17;;;15.20;;
29370;SDS011;16357;52.188;7.838;2023-05-07T05:17:47;21.65;;;16.48;;
29370;SDS011;16357;52.188;7.838;2023-05-07T05:20:14;20.83;;;15.63;;
29370;SDS011;16357;52.188;7.838;2023-05-07T05:22:41;20.40;;;16.02;;
29370;SDS011;16357;52.188;7.838;2023-05-07T05:25:08;21.52;;;15.88;;
29370;SDS011;16357;52.188;7.838;2023-05-07T05:27:35;21.80;;;15.88;;
29370;SDS011;16357;52.188;7.838;2023-05-07T05:30:02;20.40;;;15.93;;
29370;SDS011;16357;52.188;7.838;2023-05-07T05:32:29;20.05;;;16.25;;
29370;SDS011;16357;52.188;7.838;2023-05-07T05:34:55;21.63;;;16.65;;
29370;SDS011;16357;52.188;7.838;2023-05-07T05:37:22;22.17;;;16.58;;
29370;SDS011;16357;52.188;7.838;2023-05-07T05:39:48;19.83;;;15.60;;
29370;SDS011;16357;52.188;7.838;2023-05-07T05:42:15;20.98;;;15.95;;
29370;SDS011;16357;52.188;7.838;2023-05-07T05:44:41;20.90;;;15.85;;
29370;SDS011;16357;52.188;7.838;2023-05-07T05:47:08;21.60;;;16.17;;
29370;SDS011;16357;52.188;7.838;2023-05-07T05:49:34;24.15;;;16.50;;
29370;SDS011;16357;52.188;7.838;2023-05-07T05:52:01;23.67;;;16.90;;
29370;SDS011;16357;52.188;7.838;2023-05-07T05:54:27;21.42;;;16.15;;
29370;SDS011;16357;52.188;7.838;2023-05-07T05:56:54;23.00;;;16.10;;
29370;SDS011;16357;52.188;7.838;2023-05-07T05:59:20;24.63;;;17.05;;
29370;SDS011;16357;52.188;7.838;2023-05-07T06:01:47;21.48;;;16.33;;
29370;SDS011;16357;52.188;7.838;2023-05-07T06:04:13;23.05;;;16.25;;
29370;SDS011;16357;52.188;7.838;2023-05-07T06:06:40;20.25;;;15.82;;
29370;SDS011;16357;52.188;7.838;2023-05-07T06:09:06;22.80;;;16.90;;
29370;SDS011;16357;52.188;7.838;2023-05-07T06:11:33;21.23;;;15.88;;
29370;SDS011;16357;52.188;7.838;2023-05-07T06:13:59;21.42;;;15.85;;
29370;SDS011;16357;52.188;7.838;2023-05-07T06:16:26;22.77;;;16.42;;
29370;SDS011;16357;52.188;7.838;2023-05-07T06:18:52;20.60;;;15.35;;
29370;SDS011;16357;52.188;7.838;2023-05-07T06:21:19;20.42;;;16.63;;
29370;SDS011;16357;52.188;7.838;2023-05-07T06:23:45;20.77;;;16.83;;
29370;SDS011;16357;52.188;7.838;2023-05-07T06:26:11;20.67;;;15.82;;
29370;SDS011;16357;52.188;7.838;2023-05-07T06:28:38;19.90;;;15.35;;
29370;SDS011;16357;52.188;7.838;2023-05-07T06:31:11;20.67;;;15.50;;
29370;SDS011;16357;52.188;7.838;2023-05-07T06:33:42;19.65;;;15.98;;
29370;SDS011;16357;52.188;7.838;2023-05-07T06:36:10;21.85;;;15.68;;
29370;SDS011;16357;52.188;7.838;2023-05-07T06:38:36;23.10;;;16.48;;
29370;SDS011;16357;52.188;7.838;2023-05-07T06:41:03;21.90;;;17.33;;
29370;SDS011;16357;52.188;7.838;2023-05-07T06:43:29;20.65;;;15.15;;
29370;SDS011;16357;52.188;7.838;2023-05-07T06:45:55;21.00;;;15.52;;
29370;SDS011;16357;52.188;7.838;2023-05-07T06:48:22;21.67;;;16.20;;
29370;SDS011;16357;52.188;7.838;2023-05-07T06:50:48;22.73;;;16.27;;
29370;SDS011;16357;52.188;7.838;2023-05-07T06:53:15;23.90;;;16.17;;
29370;SDS011;16357;52.188;7.838;2023-05-07T06:55:41;22.05;;;16.35;;
29370;SDS011;16357;52.188;7.838;2023-05-07T06:58:08;21.52;;;16.70;;
29370;SDS011;16357;52.188;7.838;2023-05-07T07:00:34;20.25;;;15.32;;
29370;SDS011;16357;52.188;7.838;2023-05-07T07:03:01;18.63;;;14.55;;
29370;SDS011;16357;52.188;7.838;2023-05-07T07:05:27;18.45;;;14.23;;
29370;SDS011;16357;52.188;7.838;2023-05-07T07:07:54;20.50;;;15.27;;
29370;SDS011;16357;52.188;7.838;2023-05-07T07:10:21;18.60;;;14.43;;
29370;SDS011;16357;52.188;7.838;2023-05-07T07:12:48;19.08;;;14.95;;
29370;SDS011;16357;52.188;7.838;2023-05-07T07:15:15;21.60;;;15.02;;
29370;SDS011;16357;52.188;7.838;2023-05-07T07:17:42;19.25;;;14.93;;
29370;SDS011;16357;52.188;7.838;2023-05-07T07:20:10;22.88;;;15.00;;
29370;SDS011;16357;52.188;7.838;2023-05-07T07:22:37;21.08;;;15.15;;
29370;SDS011;16357;52.188;7.838;2023-05-07T07:25:04;20.95;;;14.50;;
29370;SDS011;16357;52.188;7.838;2023-05-07T07:27:30;17.95;;;14.38;;
29370;SDS011;16357;52.188;7.838;2023-05-07T07:29:57;19.35;;;14.65;;
29370;SDS011;16357;52.188;7.838;2023-05-07T07:32:23;19.75;;;13.90;;
29370;SDS011;16357;52.188;7.838;2023-05-07T07:34:50;18.50;;;14.18;;
29370;SDS011;16357;52.188;7.838;2023-05-07T07:37:16;18.48;;;14.05;;
29370;SDS011;16357;52.188;7.838;2023-05-07T07:39:42;19.48;;;14.13;;
29370;SDS011;16357;52.188;7.838;2023-05-07T07:42:09;17.88;;;13.00;;
29370;SDS011;16357;52.188;7.838;2023-05-07T07:44:35;19.02;;;14.60;;
29370;SDS011;16357;52.188;7.838;2023-05-07T07:47:02;20.10;;;14.23;;
29370;SDS011;16357;52.188;7.838;2023-05-07T07:49:29;18.25;;;14.43;;
29370;SDS011;16357;52.188;7.838;2023-05-07T07:51:55;16.95;;;13.20;;
29370;SDS011;16357;52.188;7.838;2023-05-07T07:54:24;17.35;;;13.43;;
29370;SDS011;16357;52.188;7.838;2023-05-07T07:56:51;19.95;;;13.85;;
29370;SDS011;16357;52.188;7.838;2023-05-07T07:59:18;16.10;;;13.27;;
29370;SDS011;16357;52.188;7.838;2023-05-07T08:01:45;17.25;;;13.60;;
29370;SDS011;16357;52.188;7.838;2023-05-07T08:04:11;18.65;;;13.38;;
29370;SDS011;16357;52.188;7.838;2023-05-07T08:06:38;16.73;;;12.63;;
29370;SDS011;16357;52.188;7.838;2023-05-07T08:09:04;15.15;;;12.43;;
29370;SDS011;16357;52.188;7.838;2023-05-07T08:11:31;16.98;;;12.68;;
29370;SDS011;16357;52.188;7.838;2023-05-07T08:13:57;17.00;;;13.10;;
29370;SDS011;16357;52.188;7.838;2023-05-07T08:16:24;17.42;;;13.05;;
29370;SDS011;16357;52.188;7.838;2023-05-07T08:18:51;16.58;;;12.52;;
29370;SDS011;16357;52.188;7.838;2023-05-07T08:21:17;18.10;;;13.13;;
29370;SDS011;16357;52.188;7.838;2023-05-07T08:23:43;16.08;;;12.70;;
29370;SDS011;16357;52.188;7.838;2023-05-07T08:26:10;16.17;;;12.73;;
29370;SDS011;16357;52.188;7.838;2023-05-07T08:28:37;16.98;;;12.75;;
29370;SDS011;16357;52.188;7.838;2023-05-07T08:31:03;16.20;;;12.52;;
29370;SDS011;16357;52.188;7.838;2023-05-07T08:33:30;16.25;;;12.70;;
29370;SDS011;16357;52.188;7.838;2023-05-07T08:35:57;15.60;;;12.77;;
29370;SDS011;16357;52.188;7.838;2023-05-07T08:38:23;16.13;;;12.38;;
29370;SDS011;16357;52.188;7.838;2023-05-07T08:40:50;14.90;;;11.35;;
29370;SDS011;16357;52.188;7.838;2023-05-07T08:43:16;14.68;;;11.55;;
29370;SDS011;16357;52.188;7.838;2023-05-07T08:45:44;15.05;;;12.50;;
29370;SDS011;16357;52.188;7.838;2023-05-07T08:48:15;16.52;;;11.73;;
29370;SDS011;16357;52.188;7.838;2023-05-07T08:50:43;14.38;;;11.52;;
29370;SDS011;16357;52.188;7.838;2023-05-07T08:53:09;14.38;;;11.32;;
29370;SDS011;16357;52.188;7.838;2023-05-07T08:55:36;15.48;;;11.27;;
29370;SDS011;16357;52.188;7.838;2023-05-07T08:58:03;18.52;;;12.32;;
29370;SDS011;16357;52.188;7.838;2023-05-07T09:00:30;16.40;;;11.75;;
29370;SDS011;16357;52.188;7.838;2023-05-07T09:02:56;15.65;;;11.75;;
29370;SDS011;16357;52.188;7.838;2023-05-07T09:05:23;14.45;;;11.30;;
29370;SDS011;16357;52.188;7.838;2023-05-07T09:07:49;15.32;;;12.15;;
29370;SDS011;16357;52.188;7.838;2023-05-07T09:10:20;14.02;;;11.07;;
29370;SDS011;16357;52.188;7.838;2023-05-07T09:12:47;13.65;;;10.48;;
29370;SDS011;16357;52.188;7.838;2023-05-07T09:15:14;16.35;;;10.63;;
29370;SDS011;16357;52.188;7.838;2023-05-07T09:17:40;15.88;;;10.77;;
29370;SDS011;16357;52.188;7.838;2023-05-07T09:20:08;13.23;;;10.68;;
29370;SDS011;16357;52.188;7.838;2023-05-07T09:22:36;15.52;;;10.60;;
29370;SDS011;16357;52.188;7.838;2023-05-07T09:25:04;11.02;;;9.45;;
29370;SDS011;16357;52.188;7.838;2023-05-07T09:27:32;13.07;;;10.35;;
29370;SDS011;16357;52.188;7.838;2023-05-07T09:29:58;12.98;;;9.88;;
29370;SDS011;16357;52.188;7.838;2023-05-07T09:32:24;11.90;;;9.63;;
29370;SDS011;16357;52.188;7.838;2023-05-07T09:34:53;12.50;;;9.90;;
29370;SDS011;16357;52.188;7.838;2023-05-07T09:37:20;15.55;;;10.10;;
29370;SDS011;16357;52.188;7.838;2023-05-07T09:39:47;12.00;;;9.30;;
29370;SDS011;16357;52.188;7.838;2023-05-07T09:42:15;13.15;;;9.32;;
29370;SDS011;16357;52.188;7.838;2023-05-07T09:44:43;10.48;;;9.40;;
29370;SDS011;16357;52.188;7.838;2023-05-07T09:47:14;10.85;;;8.63;;
29370;SDS011;16357;52.188;7.838;2023-05-07T09:49:46;9.90;;;8.10;;
29370;SDS011;16357;52.188;7.838;2023-05-07T09:52:14;10.63;;;8.25;;
29370;SDS011;16357;52.188;7.838;2023-05-07T09:54:43;10.48;;;8.82;;
29370;SDS011;16357;52.188;7.838;2023-05-07T09:57:11;9.60;;;8.40;;
29370;SDS011;16357;52.188;7.838;2023-05-07T09:59:43;11.02;;;8.40;;
29370;SDS011;16357;52.188;7.838;2023-05-07T10:02:10;9.13;;;8.05;;
29370;SDS011;16357;52.188;7.838;2023-05-07T10:04:39;9.48;;;8.10;;
29370;SDS011;16357;52.188;7.838;2023-05-07T10:07:06;9.25;;;7.43;;
29370;SDS011;16357;52.188;7.838;2023-05-07T10:09:33;10.05;;;7.90;;
29370;SDS011;16357;52.188;7.838;2023-05-07T10:12:05;9.70;;;8.07;;
29370;SDS011;16357;52.188;7.838;2023-05-07T10:14:32;9.20;;;7.38;;
29370;SDS011;16357;52.188;7.838;2023-05-07T10:16:59;8.98;;;7.35;;
29370;SDS011;16357;52.188;7.838;2023-05-07T10:19:27;8.15;;;7.18;;
29370;SDS011;16357;52.188;7.838;2023-05-07T10:21:55;9.07;;;7.40;;
29370;SDS011;16357;52.188;7.838;2023-05-07T10:24:31;9.27;;;6.60;;
29370;SDS011;16357;52.188;7.838;2023-05-07T10:27:00;8.73;;;6.93;;
29370;SDS011;16357;52.188;7.838;2023-05-07T10:35:06;7.88;;;6.95;;
29370;SDS011;16357;52.188;7.838;2023-05-07T10:37:37;8.65;;;7.22;;
29370;SDS011;16357;52.188;7.838;2023-05-07T10:40:05;7.43;;;6.65;;
29370;SDS011;16357;52.188;7.838;2023-05-07T10:42:33;7.18;;;6.43;;
29370;SDS011;16357;52.188;7.838;2023-05-07T10:45:15;8.30;;;6.97;;
29370;SDS011;16357;52.188;7.838;2023-05-07T10:51:18;8.88;;;6.80;;
29370;SDS011;16357;52.188;7.838;2023-05-07T10:53:46;8.27;;;6.80;;
29370;SDS011;16357;52.188;7.838;2023-05-07T10:58:46;9.15;;;7.53;;
29370;SDS011;16357;52.188;7.838;2023-05-07T11:01:13;9.07;;;6.97;;
29370;SDS011;16357;52.188;7.838;2023-05-07T11:15:07;9.70;;;6.45;;
29370;SDS011;16357;52.188;7.838;2023-05-07T11:17:51;8.48;;;6.68;;
29370;SDS011;16357;52.188;7.838;2023-05-07T11:20:19;8.18;;;6.68;;
29370;SDS011;16357;52.188;7.838;2023-05-07T11:22:46;6.57;;;5.88;;
29370;SDS011;16357;52.188;7.838;2023-05-07T11:25:17;8.70;;;6.47;;
29370;SDS011;16357;52.188;7.838;2023-05-07T11:27:45;7.65;;;6.38;;
29370;SDS011;16357;52.188;7.838;2023-05-07T11:30:20;7.00;;;6.30;;
29370;SDS011;16357;52.188;7.838;2023-05-07T11:35:15;7.38;;;5.80;;
29370;SDS011;16357;52.188;7.838;2023-05-07T11:37:42;6.22;;;5.55;;
29370;SDS011;16357;52.188;7.838;2023-05-07T11:40:11;6.82;;;5.85;;
29370;SDS011;16357;52.188;7.838;2023-05-07T11:42:40;7.35;;;5.95;;
29370;SDS011;16357;52.188;7.838;2023-05-07T11:45:10;6.95;;;5.38;;
29370;SDS011;16357;52.188;7.838;2023-05-07T11:47:37;7.80;;;6.05;;
29370;SDS011;16357;52.188;7.838;2023-05-07T11:50:04;7.60;;;5.78;;
29370;SDS011;16357;52.188;7.838;2023-05-07T11:52:33;7.38;;;5.72;;
29370;SDS011;16357;52.188;7.838;2023-05-07T11:55:01;5.90;;;5.30;;
29370;SDS011;16357;52.188;7.838;2023-05-07T11:57:29;6.20;;;5.60;;
29370;SDS011;16357;52.188;7.838;2023-05-07T11:59:56;6.80;;;5.68;;
29370;SDS011;16357;52.188;7.838;2023-05-07T12:02:24;7.35;;;5.95;;
29370;SDS011;16357;52.188;7.838;2023-05-07T12:04:52;7.25;;;6.10;;
29370;SDS011;16357;52.188;7.838;2023-05-07T12:07:19;6.30;;;5.47;;
29370;SDS011;16357;52.188;7.838;2023-05-07T12:09:46;6.78;;;5.70;;
29370;SDS011;16357;52.188;7.838;2023-05-07T12:12:13;6.13;;;5.30;;
29370;SDS011;16357;52.188;7.838;2023-05-07T12:14:52;6.57;;;5.88;;
29370;SDS011;16357;52.188;7.838;2023-05-07T12:17:19;7.30;;;6.13;;
29370;SDS011;16357;52.188;7.838;2023-05-07T12:19:55;6.35;;;5.75;;
29370;SDS011;16357;52.188;7.838;2023-05-07T12:22:22;6.28;;;5.47;;
29370;SDS011;16357;52.188;7.838;2023-05-07T12:24:49;5.80;;;5.20;;
29370;SDS011;16357;52.188;7.838;2023-05-07T12:27:22;7.57;;;5.82;;
29370;SDS011;16357;52.188;7.838;2023-05-07T12:29:49;5.50;;;5.00;;
29370;SDS011;16357;52.188;7.838;2023-05-07T12:32:19;5.60;;;5.07;;
29370;SDS011;16357;52.188;7.838;2023-05-07T12:34:49;5.50;;;5.00;;
29370;SDS011;16357;52.188;7.838;2023-05-07T12:37:17;6.25;;;5.63;;
29370;SDS011;16357;52.188;7.838;2023-05-07T12:40:03;7.78;;;5.57;;
29370;SDS011;16357;52.188;7.838;2023-05-07T12:42:37;6.53;;;5.30;;
29370;SDS011;16357;52.188;7.838;2023-05-07T12:45:11;6.45;;;5.20;;
29370;SDS011;16357;52.188;7.838;2023-05-07T12:47:43;5.90;;;5.22;;
29370;SDS011;16357;52.188;7.838;2023-05-07T12:50:14;6.05;;;5.35;;
29370;SDS011;16357;52.188;7.838;2023-05-07T12:52:42;6.07;;;5.45;;
29370;SDS011;16357;52.188;7.838;2023-05-07T12:55:12;6.95;;;5.65;;
29370;SDS011;16357;52.188;7.838;2023-05-07T12:57:45;5.82;;;5.10;;
29370;SDS011;16357;52.188;7.838;2023-05-07T13:00:14;5.68;;;5.00;;
29370;SDS011;16357;52.188;7.838;2023-05-07T13:02:42;5.68;;;4.93;;
29370;SDS011;16357;52.188;7.838;2023-05-07T13:05:12;5.93;;;5.13;;
29370;SDS011;16357;52.188;7.838;2023-05-07T13:07:39;5.60;;;4.78;;
29370;SDS011;16357;52.188;7.838;2023-05-07T13:10:07;4.70;;;4.07;;
29370;SDS011;16357;52.188;7.838;2023-05-07T13:12:34;7.25;;;4.28;;
29370;SDS011;16357;52.188;7.838;2023-05-07T13:15:01;4.85;;;4.10;;
29370;SDS011;16357;52.188;7.838;2023-05-07T13:17:27;4.43;;;3.95;;
29370;SDS011;16357;52.188;7.838;2023-05-07T13:19:54;6.57;;;5.10;;
29370;SDS011;16357;52.188;7.838;2023-05-07T13:22:20;5.13;;;4.57;;
29370;SDS011;16357;52.188;7.838;2023-05-07T13:24:46;5.00;;;3.97;;
29370;SDS011;16357;52.188;7.838;2023-05-07T13:27:13;6.05;;;4.57;;
29370;SDS011;16357;52.188;7.838;2023-05-07T13:29:39;4.75;;;4.15;;
29370;SDS011;16357;52.188;7.838;2023-05-07T13:32:06;4.97;;;4.47;;
29370;SDS011;16357;52.188;7.838;2023-05-07T13:34:32;6.53;;;4.57;;
29370;SDS011;16357;52.188;7.838;2023-05-07T13:36:59;5.20;;;4.38;;
29370;SDS011;16357;52.188;7.838;2023-05-07T13:39:25;5.15;;;4.00;;
29370;SDS011;16357;52.188;7.838;2023-05-07T13:41:52;4.95;;;4.40;;
29370;SDS011;16357;52.188;7.838;2023-05-07T13:44:18;5.55;;;4.15;;
29370;SDS011;16357;52.188;7.838;2023-05-07T13:46:45;5.60;;;4.13;;
29370;SDS011;16357;52.188;7.838;2023-05-07T13:49:11;4.70;;;4.20;;
29370;SDS011;16357;52.188;7.838;2023-05-07T13:51:39;5.07;;;4.38;;
29370;SDS011;16357;52.188;7.838;2023-05-07T13:54:05;4.53;;;4.13;;
29370;SDS011;16357;52.188;7.838;2023-05-07T13:56:31;6.35;;;4.30;;
29370;SDS011;16357;52.188;7.838;2023-05-07T13:58:58;7.43;;;4.53;;
29370;SDS011;16357;52.188;7.838;2023-05-07T14:01:26;8.80;;;4.47;;
29370;SDS011;16357;52.188;7.838;2023-05-07T14:03:53;5.35;;;4.10;;
29370;SDS011;16357;52.188;7.838;2023-05-07T14:06:20;5.97;;;4.22;;
29370;SDS011;16357;52.188;7.838;2023-05-07T14:08:46;5.18;;;4.15;;
29370;SDS011;16357;52.188;7.838;2023-05-07T14:11:13;5.00;;;4.35;;
29370;SDS011;16357;52.188;7.838;2023-05-07T14:13:39;3.90;;;3.50;;
29370;SDS011;16357;52.188;7.838;2023-05-07T14:16:06;4.63;;;3.95;;
29370;SDS011;16357;52.188;7.838;2023-05-07T14:18:32;6.95;;;4.03;;
29370;SDS011;16357;52.188;7.838;2023-05-07T14:21:00;4.57;;;3.50;;
29370;SDS011;16357;52.188;7.838;2023-05-07T14:23:27;4.72;;;3.78;;
29370;SDS011;16357;52.188;7.838;2023-05-07T14:25:55;4.35;;;3.75;;
29370;SDS011;16357;52.188;7.838;2023-05-07T14:28:23;4.15;;;3.75;;
29370;SDS011;16357;52.188;7.838;2023-05-07T14:30:50;4.75;;;3.30;;
29370;SDS011;16357;52.188;7.838;2023-05-07T14:33:16;4.97;;;3.35;;
29370;SDS011;16357;52.188;7.838;2023-05-07T14:35:43;4.28;;;3.88;;
29370;SDS011;16357;52.188;7.838;2023-05-07T14:38:14;4.60;;;3.45;;
29370;SDS011;16357;52.188;7.838;2023-05-07T14:40:41;3.88;;;3.47;;
29370;SDS011;16357;52.188;7.838;2023-05-07T14:43:08;3.88;;;3.47;;
29370;SDS011;16357;52.188;7.838;2023-05-07T14:45:34;4.13;;;3.63;;
29370;SDS011;16357;52.188;7.838;2023-05-07T14:48:01;5.57;;;3.50;;
29370;SDS011;16357;52.188;7.838;2023-05-07T14:50:28;4.88;;;4.07;;
29370;SDS011;16357;52.188;7.838;2023-05-07T14:52:54;4.72;;;4.10;;
29370;SDS011;16357;52.188;7.838;2023-05-07T14:55:21;4.60;;;3.45;;
29370;SDS011;16357;52.188;7.838;2023-05-07T14:57:47;4.30;;;3.83;;
29370;SDS011;16357;52.188;7.838;2023-05-07T15:00:13;5.03;;;3.85;;